createdAt,value
2018-06-09T00:00:36.727Z,7.60
2018-06-09T00:03:06.088Z,7.23
2018-06-09T00:05:34.755Z,5.20
2018-06-09T00:08:04.125Z,9.93
2018-06-09T00:10:33.398Z,4.33
2018-06-09T00:13:02.625Z,7.13
2018-06-09T00:15:31.952Z,7.13
2018-06-09T00:18:01.309Z,5.40
2018-06-09T00:20:30.519Z,4.60
2018-06-09T00:22:59.885Z,4.27
2018-06-09T00:25:29.090Z,4.33
2018-06-09T00:27:58.280Z,7.17
2018-06-09T00:30:26.593Z,5.70
2018-06-09T00:32:55.824Z,6.63
2018-06-09T00:35:24.168Z,5.10
2018-06-09T00:37:53.384Z,6.63
2018-06-09T00:40:22.579Z,10.33
2018-06-09T00:42:51.793Z,4.57
2018-06-09T00:45:20.960Z,6.93
2018-06-09T00:47:50.288Z,4.67
2018-06-09T00:50:19.497Z,8.77
2018-06-09T00:52:48.708Z,6.27
2018-06-09T00:55:17.032Z,6.50
2018-06-09T00:57:46.344Z,8.17
2018-06-09T01:00:14.659Z,8.27
2018-06-09T01:02:42.979Z,6.27
2018-06-09T01:05:12.184Z,4.60
2018-06-09T01:07:41.452Z,6.00
2018-06-09T01:10:10.769Z,5.10
2018-06-09T01:12:40.121Z,8.53
2018-06-09T01:15:09.305Z,5.40
2018-06-09T01:17:38.660Z,6.07
2018-06-09T01:20:07.969Z,8.37
2018-06-09T01:22:36.274Z,4.77
2018-06-09T01:25:05.724Z,7.50
2018-06-09T01:27:34.059Z,12.17
2018-06-09T01:30:02.386Z,6.60
2018-06-09T01:32:30.711Z,10.00
2018-06-09T01:34:59.021Z,8.60
2018-06-09T01:37:28.348Z,9.80
2018-06-09T01:39:56.661Z,7.63
2018-06-09T01:42:24.972Z,5.37
2018-06-09T01:44:53.288Z,8.03
2018-06-09T01:47:21.605Z,8.00
2018-06-09T01:49:50.916Z,6.10
2018-06-09T01:52:20.238Z,7.10
2018-06-09T01:54:49.548Z,8.40
2018-06-09T01:57:18.873Z,5.43
2018-06-09T01:59:48.227Z,5.10
2018-06-09T02:02:16.580Z,8.70
2018-06-09T02:04:45.773Z,9.90
2018-06-09T02:07:14.091Z,8.90
2018-06-09T02:09:43.422Z,5.80
2018-06-09T02:12:12.969Z,15.03
2018-06-09T02:14:42.180Z,7.23
2018-06-09T02:17:10.496Z,4.53
2018-06-09T02:19:38.817Z,6.60
2018-06-09T02:22:07.132Z,5.77
2018-06-09T02:24:36.488Z,5.23
2018-06-09T02:27:04.881Z,6.90
2018-06-09T02:29:34.278Z,7.63
2018-06-09T02:32:02.713Z,5.63
2018-06-09T02:34:31.025Z,9.03
2018-06-09T02:36:59.332Z,6.93
2018-06-09T02:39:27.642Z,5.17
2018-06-09T02:41:56.837Z,5.60
2018-06-09T02:44:26.188Z,5.77
2018-06-09T02:46:54.555Z,4.70
2018-06-09T02:49:23.745Z,8.03
2018-06-09T02:51:52.098Z,7.57
2018-06-09T02:54:21.299Z,6.40
2018-06-09T02:56:49.641Z,7.67
2018-06-09T02:59:18.884Z,5.40
2018-06-09T03:01:47.197Z,8.67
2018-06-09T03:04:16.541Z,9.57
2018-06-09T03:06:45.893Z,8.60
2018-06-09T03:09:15.054Z,5.50
2018-06-09T03:11:44.269Z,10.80
2018-06-09T03:14:13.449Z,6.30
2018-06-09T03:16:42.672Z,9.30
2018-06-09T03:19:10.986Z,8.60
2018-06-09T03:21:40.353Z,8.10
2018-06-09T03:24:09.680Z,10.30
2018-06-09T03:26:39.003Z,6.43
2018-06-09T03:29:07.451Z,6.67
2018-06-09T03:31:36.637Z,9.20
2018-06-09T03:34:05.834Z,11.50
2018-06-09T03:36:35.157Z,11.50
2018-06-09T03:39:04.400Z,12.53
2018-06-09T03:41:33.587Z,7.30
2018-06-09T03:44:01.928Z,8.63
2018-06-09T03:46:30.286Z,12.47
2018-06-09T03:48:58.629Z,8.10
2018-06-09T03:51:27.980Z,12.17
2018-06-09T03:53:56.359Z,7.70
2018-06-09T03:56:24.713Z,5.53
2018-06-09T03:58:53.072Z,6.37
2018-06-09T04:01:21.377Z,8.83
2018-06-09T04:03:49.725Z,7.50
2018-06-09T04:06:19.098Z,8.80
2018-06-09T04:08:47.455Z,7.63
2018-06-09T04:11:16.789Z,11.00
2018-06-09T04:13:45.153Z,5.90
2018-06-09T04:16:14.348Z,10.80
2018-06-09T04:18:42.676Z,6.30
2018-06-09T04:21:11.997Z,7.80
2018-06-09T04:23:41.304Z,7.43
2018-06-09T04:26:09.609Z,7.97
2018-06-09T04:28:38.616Z,10.33
2018-06-09T04:31:07.982Z,10.13
2018-06-09T04:33:37.311Z,6.70
2018-06-09T04:36:06.502Z,7.83
2018-06-09T04:38:34.821Z,5.83
2018-06-09T04:41:03.140Z,9.50
2018-06-09T04:43:31.468Z,7.23
2018-06-09T04:45:59.795Z,7.63
2018-06-09T04:48:28.142Z,5.63
2018-06-09T04:50:56.453Z,6.50
2018-06-09T04:53:24.773Z,7.30
2018-06-09T04:55:53.086Z,8.27
2018-06-09T04:58:21.400Z,5.80
2018-06-09T05:00:49.714Z,9.93
2018-06-09T05:03:18.054Z,9.27
2018-06-09T05:05:46.384Z,14.03
2018-06-09T05:08:14.704Z,7.17
2018-06-09T05:10:43.041Z,9.93
2018-06-09T05:13:11.408Z,10.80
2018-06-09T05:15:39.720Z,7.90
2018-06-09T05:18:08.045Z,9.27
2018-06-09T05:20:36.379Z,9.27
2018-06-09T05:23:04.729Z,9.03
2018-06-09T05:25:33.040Z,8.67
2018-06-09T05:28:01.928Z,6.53
2018-06-09T05:30:31.075Z,10.80
2018-06-09T05:32:59.402Z,12.93
2018-06-09T05:35:27.721Z,7.40
2018-06-09T05:37:56.085Z,10.27
2018-06-09T05:40:24.408Z,7.37
2018-06-09T05:42:52.738Z,7.97
2018-06-09T05:45:21.050Z,8.00
2018-06-09T05:47:49.360Z,8.10
2018-06-09T05:50:17.715Z,10.03
2018-06-09T05:52:46.043Z,9.37
2018-06-09T05:55:14.353Z,10.20
2018-06-09T05:57:42.668Z,10.10
2018-06-09T06:00:12.023Z,7.53
2018-06-09T06:02:41.218Z,7.00
2018-06-09T06:05:10.544Z,10.13
2018-06-09T06:07:38.856Z,10.50
2018-06-09T06:10:08.066Z,8.10
2018-06-09T06:12:37.455Z,5.83
2018-06-09T06:15:05.785Z,8.87
2018-06-09T06:17:34.097Z,9.60
2018-06-09T06:20:02.406Z,8.30
2018-06-09T06:22:30.724Z,8.70
2018-06-09T06:24:59.047Z,5.83
2018-06-09T06:27:27.360Z,8.00
2018-06-09T06:29:55.768Z,7.80
2018-06-09T06:32:23.148Z,11.00
2018-06-09T06:34:51.462Z,7.87
2018-06-09T06:37:19.866Z,9.27
2018-06-09T06:39:48.215Z,7.33
2018-06-09T06:42:25.079Z,9.10
2018-06-09T06:44:53.825Z,7.70
2018-06-09T06:47:22.262Z,7.03
2018-06-09T06:49:50.578Z,8.53
2018-06-09T06:52:18.892Z,9.20
2018-06-09T06:54:48.227Z,4.33
2018-06-09T06:57:17.329Z,6.07
2018-06-09T06:59:45.649Z,9.20
2018-06-09T07:02:14.025Z,7.47
2018-06-09T07:04:42.342Z,6.20
2018-06-09T07:07:10.812Z,5.30
2018-06-09T07:09:39.137Z,6.97
2018-06-09T07:12:08.249Z,6.53
2018-06-09T07:14:36.569Z,13.60
2018-06-09T07:17:04.896Z,8.57
2018-06-09T07:19:33.214Z,9.47
2018-06-09T07:22:01.572Z,5.03
2018-06-09T07:24:29.885Z,8.87
2018-06-09T07:26:58.248Z,7.13
2018-06-09T07:29:26.665Z,6.70
2018-06-09T07:31:55.853Z,4.80
2018-06-09T07:34:24.174Z,10.43
2018-06-09T07:36:52.528Z,5.53
2018-06-09T07:39:21.633Z,6.83
2018-06-09T07:41:50.885Z,16.13
2018-06-09T07:44:19.200Z,4.57
2018-06-09T07:46:47.509Z,6.27
2018-06-09T07:49:15.826Z,8.23
2018-06-09T07:51:44.180Z,10.13
2018-06-09T07:54:12.549Z,13.47
2018-06-09T07:56:40.905Z,10.23
2018-06-09T07:59:09.213Z,5.90
2018-06-09T08:01:37.558Z,4.90
2018-06-09T08:04:05.870Z,20.80
2018-06-09T08:06:34.212Z,12.00
2018-06-09T08:09:02.544Z,7.43
2018-06-09T08:11:30.837Z,6.77
2018-06-09T08:13:59.223Z,7.50
2018-06-09T08:16:28.547Z,4.20
2018-06-09T08:18:56.850Z,6.43
2018-06-09T08:21:25.161Z,7.17
2018-06-09T08:23:53.497Z,4.37
2018-06-09T08:26:22.688Z,5.43
2018-06-09T08:28:51.024Z,7.83
2018-06-09T08:31:20.205Z,5.53
2018-06-09T08:33:48.507Z,7.30
2018-06-09T08:36:16.817Z,7.83
2018-06-09T08:38:45.148Z,5.43
2018-06-09T08:41:13.465Z,6.53
2018-06-09T08:43:41.761Z,7.10
2018-06-09T08:46:10.063Z,7.63
2018-06-09T08:48:40.377Z,7.17
2018-06-09T08:51:08.677Z,8.97
2018-06-09T08:53:36.977Z,9.13
2018-06-09T08:56:05.286Z,4.53
2018-06-09T08:58:33.600Z,6.20
2018-06-09T09:01:01.905Z,3.73
2018-06-09T09:03:30.212Z,3.73
2018-06-09T09:05:58.528Z,6.33
2018-06-09T09:08:26.864Z,5.77
2018-06-09T09:10:55.172Z,4.90
2018-06-09T09:13:23.657Z,4.10
2018-06-09T09:15:51.957Z,12.23
2018-06-09T09:18:20.264Z,7.67
2018-06-09T09:20:48.583Z,4.43
2018-06-09T09:23:17.783Z,5.97
2018-06-09T09:25:46.085Z,3.73
2018-06-09T09:28:14.388Z,4.23
2018-06-09T09:30:42.730Z,5.73
2018-06-09T09:33:11.065Z,3.93
2018-06-09T09:35:39.412Z,6.50
2018-06-09T09:38:08.720Z,6.23
2018-06-09T09:40:37.033Z,6.87
2018-06-09T09:43:06.341Z,8.43
2018-06-09T09:45:34.654Z,4.73
2018-06-09T09:48:03.911Z,7.07
2018-06-09T09:50:32.224Z,7.70
2018-06-09T09:53:01.392Z,5.50
2018-06-09T09:55:29.698Z,7.67
2018-06-09T09:58:00.140Z,6.93
2018-06-09T10:00:33.713Z,5.30
2018-06-09T10:03:03.065Z,4.33
2018-06-09T10:05:32.377Z,4.83
2018-06-09T10:08:01.597Z,10.03
2018-06-09T10:10:30.974Z,6.10
2018-06-09T10:12:59.277Z,6.17
2018-06-09T10:15:27.614Z,4.73
2018-06-09T10:17:56.925Z,6.43
2018-06-09T10:20:26.125Z,4.10
2018-06-09T10:22:55.248Z,3.90
2018-06-09T10:25:24.509Z,4.00
2018-06-09T10:27:53.736Z,4.73
2018-06-09T10:30:23.030Z,4.47
2018-06-09T10:32:51.395Z,7.20
2018-06-09T10:35:20.704Z,4.57
2018-06-09T10:37:50.036Z,5.07
2018-06-09T10:40:19.216Z,7.17
2018-06-09T10:42:48.388Z,5.83
2018-06-09T10:45:17.628Z,6.33
2018-06-09T10:47:46.948Z,6.50
2018-06-09T10:50:16.125Z,10.70
2018-06-09T10:52:44.473Z,6.67
2018-06-09T10:55:13.662Z,8.23
2018-06-09T10:57:42.016Z,7.50
2018-06-09T11:00:11.429Z,7.90
2018-06-09T11:02:39.777Z,6.50
2018-06-09T11:05:09.057Z,7.30
2018-06-09T11:07:37.372Z,5.07
2018-06-09T11:10:05.899Z,7.60
2018-06-09T11:12:35.095Z,5.63
2018-06-09T11:15:04.339Z,9.00
2018-06-09T11:17:33.591Z,6.00
2018-06-09T11:20:02.941Z,9.40
2018-06-09T11:22:31.307Z,6.27
2018-06-09T11:25:00.528Z,6.33
2018-06-09T11:27:29.831Z,5.83
2018-06-09T11:29:58.144Z,5.80
2018-06-09T11:32:26.461Z,6.77
2018-06-09T11:34:54.774Z,5.20
2018-06-09T11:37:23.097Z,7.27
2018-06-09T11:39:51.417Z,9.93
2018-06-09T11:42:19.724Z,6.40
2018-06-09T11:44:48.032Z,8.57
2018-06-09T11:47:16.340Z,12.10
2018-06-09T11:49:44.649Z,7.50
2018-06-09T11:52:12.961Z,8.13
2018-06-09T11:54:41.281Z,10.03
2018-06-09T11:57:09.857Z,11.80
2018-06-09T11:59:42.797Z,5.10
2018-06-09T12:02:11.162Z,11.00
2018-06-09T12:04:39.480Z,7.10
2018-06-09T12:07:07.794Z,9.30
2018-06-09T12:09:36.139Z,6.43
2018-06-09T12:12:04.465Z,5.40
2018-06-09T12:14:33.789Z,7.37
2018-06-09T12:17:02.966Z,6.07
2018-06-09T12:19:32.185Z,5.30
2018-06-09T12:22:01.383Z,7.37
2018-06-09T12:24:29.690Z,7.70
2018-06-09T12:26:58.065Z,7.90
2018-06-09T12:29:26.372Z,7.03
2018-06-09T12:31:54.713Z,5.40
2018-06-09T12:34:23.041Z,7.90
2018-06-09T12:36:51.353Z,6.27
2018-06-09T12:39:19.686Z,6.20
2018-06-09T12:41:48.025Z,6.70
2018-06-09T12:44:16.371Z,5.60
2018-06-09T12:46:44.721Z,9.03
2018-06-09T12:49:13.036Z,6.40
2018-06-09T12:51:41.390Z,8.20
2018-06-09T12:54:09.751Z,8.00
2018-06-09T12:56:38.956Z,6.23
2018-06-09T12:59:07.279Z,6.13
2018-06-09T13:01:35.594Z,6.30
2018-06-09T13:04:03.948Z,7.20
2018-06-09T13:06:32.288Z,5.73
2018-06-09T13:09:00.644Z,7.07
2018-06-09T13:11:29.009Z,5.47
2018-06-09T13:13:57.417Z,6.00
2018-06-09T13:16:25.722Z,6.20
2018-06-09T13:18:54.039Z,5.83
2018-06-09T13:21:22.360Z,7.07
2018-06-09T13:23:51.568Z,7.07
2018-06-09T13:26:20.900Z,7.60
2018-06-09T13:28:49.216Z,5.53
2018-06-09T13:31:17.545Z,6.20
2018-06-09T13:33:45.898Z,6.70
2018-06-09T13:36:14.214Z,5.50
2018-06-09T13:38:42.622Z,7.33
2018-06-09T13:41:11.812Z,5.87
2018-06-09T13:43:41.044Z,5.03
2018-06-09T13:46:10.157Z,6.03
2018-06-09T13:48:39.520Z,6.17
2018-06-09T13:51:08.888Z,6.53
2018-06-09T13:53:38.209Z,5.40
2018-06-09T13:56:06.566Z,7.70
2018-06-09T13:58:35.880Z,5.80
2018-06-09T14:01:05.236Z,5.17
2018-06-09T14:03:33.548Z,8.10
2018-06-09T14:06:03.725Z,7.60
2018-06-09T14:08:33.028Z,4.87
2018-06-09T14:11:02.232Z,14.47
2018-06-09T14:13:31.553Z,6.57
2018-06-09T14:16:00.856Z,7.73
2018-06-09T14:18:30.217Z,7.50
2018-06-09T14:20:58.537Z,4.73
2018-06-09T14:23:27.717Z,8.03
2018-06-09T14:25:56.048Z,10.20
2018-06-09T14:28:24.367Z,4.40
2018-06-09T14:30:52.685Z,8.60
2018-06-09T14:33:21.016Z,7.33
2018-06-09T14:35:53.303Z,5.83
2018-06-09T14:38:21.614Z,6.70
2018-06-09T14:40:50.789Z,6.50
2018-06-09T14:43:19.104Z,5.73
2018-06-09T14:45:47.430Z,7.43
2018-06-09T14:48:15.751Z,7.13
2018-06-09T14:50:44.074Z,10.90
2018-06-09T14:53:12.400Z,5.70
2018-06-09T14:55:40.713Z,6.80
2018-06-09T14:58:09.029Z,5.23
2018-06-09T15:00:37.335Z,4.40
2018-06-09T15:03:05.652Z,7.73
2018-06-09T15:05:33.980Z,4.50
2018-06-09T15:08:02.336Z,4.27
2018-06-09T15:10:30.665Z,4.97
2018-06-09T15:12:58.969Z,6.20
2018-06-09T15:15:27.328Z,6.00
2018-06-09T15:17:55.636Z,6.83
2018-06-09T15:20:23.964Z,4.90
2018-06-09T15:22:52.280Z,6.60
2018-06-09T15:25:20.595Z,7.73
2018-06-09T15:27:48.910Z,5.70
2018-06-09T15:30:17.227Z,4.50
2018-06-09T15:32:45.551Z,4.60
2018-06-09T15:35:13.915Z,5.70
2018-06-09T15:37:42.220Z,9.73
2018-06-09T15:40:10.549Z,4.87
2018-06-09T15:42:38.861Z,4.43
2018-06-09T15:45:07.174Z,4.87
2018-06-09T15:47:35.484Z,4.77
2018-06-09T15:50:03.853Z,7.33
2018-06-09T15:52:32.175Z,5.87
2018-06-09T15:55:00.496Z,11.03
2018-06-09T15:57:28.820Z,5.27
2018-06-09T15:59:58.096Z,5.33
2018-06-09T16:02:26.853Z,6.20
2018-06-09T16:04:55.188Z,4.20
2018-06-09T16:07:23.545Z,8.20
2018-06-09T16:09:51.906Z,6.90
2018-06-09T16:12:20.218Z,8.67
2018-06-09T16:14:48.633Z,5.30
2018-06-09T16:17:16.930Z,5.80
2018-06-09T16:19:45.250Z,5.70
2018-06-09T16:22:14.394Z,4.77
2018-06-09T16:24:42.753Z,8.30
2018-06-09T16:27:11.065Z,4.07
2018-06-09T16:29:39.372Z,6.97
2018-06-09T16:32:07.681Z,10.93
2018-06-09T16:34:35.999Z,6.07
2018-06-09T16:37:04.304Z,7.57
2018-06-09T16:39:32.614Z,7.97
2018-06-09T16:42:00.925Z,8.27
2018-06-09T16:44:29.232Z,5.60
2018-06-09T16:46:57.546Z,9.60
2018-06-09T16:49:25.863Z,11.87
2018-06-09T16:51:54.206Z,7.67
2018-06-09T16:54:22.518Z,5.97
2018-06-09T16:56:51.699Z,5.90
2018-06-09T16:59:20.020Z,4.60
2018-06-09T17:01:48.339Z,6.77
2018-06-09T17:04:16.652Z,7.20
2018-06-09T17:06:44.973Z,7.00
2018-06-09T17:09:14.336Z,8.50
2018-06-09T17:11:42.653Z,6.37
2018-06-09T17:14:10.974Z,7.90
2018-06-09T17:16:39.286Z,11.20
2018-06-09T17:19:07.597Z,12.77
2018-06-09T17:21:35.914Z,11.17
2018-06-09T17:24:04.238Z,8.70
2018-06-09T17:26:33.552Z,10.60
2018-06-09T17:29:02.913Z,14.80
2018-06-09T17:31:32.238Z,10.73
2018-06-09T17:34:01.545Z,11.43
2018-06-09T17:36:30.880Z,13.47
2018-06-09T17:39:00.109Z,10.93
2018-06-09T17:41:29.429Z,11.93
2018-06-09T17:43:57.807Z,10.80
2018-06-09T17:46:26.128Z,12.80
2018-06-09T17:48:55.306Z,11.53
2018-06-09T17:51:23.621Z,9.80
2018-06-09T17:53:51.940Z,11.30
2018-06-09T17:56:21.155Z,10.90
2018-06-09T17:58:50.360Z,9.57
2018-06-09T18:01:18.677Z,10.57
2018-06-09T18:03:47.063Z,10.47
2018-06-09T18:06:16.269Z,12.27
2018-06-09T18:08:44.576Z,10.10
2018-06-09T18:11:12.920Z,12.80
2018-06-09T18:13:42.110Z,11.13
2018-06-09T18:16:10.421Z,9.53
2018-06-09T18:18:38.723Z,9.83
2018-06-09T18:21:07.037Z,9.47
2018-06-09T18:23:36.241Z,11.53
2018-06-09T18:26:04.568Z,12.77
2018-06-09T18:28:32.870Z,20.70
2018-06-09T18:31:02.088Z,15.90
2018-06-09T18:33:30.436Z,13.77
2018-06-09T18:35:59.630Z,10.23
2018-06-09T18:38:27.945Z,10.67
2018-06-09T18:40:57.260Z,11.00
2018-06-09T18:43:26.574Z,11.90
2018-06-09T18:45:55.708Z,8.80
2018-06-09T18:48:24.892Z,11.90
2018-06-09T18:50:54.154Z,12.47
2018-06-09T18:53:23.341Z,9.73
2018-06-09T18:55:51.709Z,15.70
2018-06-09T18:58:20.020Z,12.60
2018-06-09T19:00:49.293Z,14.13
2018-06-09T19:03:18.528Z,11.13
2018-06-09T19:05:46.873Z,12.40
2018-06-09T19:08:16.056Z,8.97
2018-06-09T19:10:44.373Z,10.20
2018-06-09T19:13:13.695Z,11.07
2018-06-09T19:15:43.006Z,9.70
2018-06-09T19:18:12.340Z,11.00
2018-06-09T19:20:40.700Z,12.00
2018-06-09T19:23:09.888Z,13.40
2018-06-09T19:25:39.211Z,10.27
2018-06-09T19:28:07.521Z,12.40
2018-06-09T19:30:35.831Z,13.30
2018-06-09T19:33:04.951Z,13.23
2018-06-09T19:35:34.146Z,13.33
2018-06-09T19:38:03.338Z,11.77
2018-06-09T19:40:31.654Z,10.80
2018-06-09T19:42:59.965Z,15.10
2018-06-09T19:45:28.283Z,12.43
2018-06-09T19:47:56.597Z,13.03
2018-06-09T19:50:25.793Z,15.90
2018-06-09T19:52:54.123Z,12.40
2018-06-09T19:55:22.445Z,13.57
2018-06-09T19:57:50.762Z,13.60
2018-06-09T20:00:19.997Z,14.30
2018-06-09T20:02:48.401Z,13.60
2018-06-09T20:05:16.758Z,12.90
2018-06-09T20:07:45.061Z,11.40
2018-06-09T20:10:13.381Z,13.07
2018-06-09T20:12:41.691Z,14.17
2018-06-09T20:15:10.054Z,14.77
2018-06-09T20:17:38.384Z,18.23
2018-06-09T20:20:06.702Z,13.13
2018-06-09T20:22:35.017Z,11.70
2018-06-09T20:25:03.381Z,16.47
2018-06-09T20:27:31.746Z,14.70
2018-06-09T20:30:00.071Z,19.50
2018-06-09T20:32:28.416Z,10.43
2018-06-09T20:34:56.753Z,14.20
2018-06-09T20:37:25.115Z,14.67
2018-06-09T20:39:53.449Z,14.50
2018-06-09T20:42:22.689Z,17.30
2018-06-09T20:44:51.017Z,14.83
2018-06-09T20:47:20.240Z,16.77
2018-06-09T20:49:49.425Z,14.00
2018-06-09T20:52:18.658Z,13.93
2018-06-09T20:54:47.861Z,15.93
2018-06-09T20:57:17.173Z,13.10
2018-06-09T20:59:46.426Z,16.50
2018-06-09T21:02:15.614Z,14.23
2018-06-09T21:04:44.797Z,15.40
2018-06-09T21:07:13.153Z,14.60
2018-06-09T21:09:41.471Z,13.90
2018-06-09T21:12:10.826Z,16.47
2018-06-09T21:14:40.054Z,14.67
2018-06-09T21:17:09.284Z,17.47
2018-06-09T21:19:38.494Z,16.60
2018-06-09T21:22:06.800Z,13.77
2018-06-09T21:24:36.001Z,14.73
2018-06-09T21:27:09.521Z,18.10
2018-06-09T21:29:43.944Z,19.90
2018-06-09T21:32:16.521Z,13.73
2018-06-09T21:35:01.305Z,17.17
2018-06-09T21:37:35.621Z,13.77
2018-06-09T21:40:09.341Z,13.63
2018-06-09T21:42:41.853Z,14.83
2018-06-09T21:45:11.757Z,15.90
2018-06-09T21:47:40.953Z,17.00
2018-06-09T21:50:09.260Z,14.53
2018-06-09T21:52:37.625Z,13.67
2018-06-09T21:55:06.802Z,16.87
2018-06-09T21:57:35.111Z,15.87
2018-06-09T22:00:05.981Z,15.27
2018-06-09T22:02:35.408Z,18.70
2018-06-09T22:05:03.770Z,18.10
2018-06-09T22:07:32.084Z,21.70
2018-06-09T22:10:01.394Z,18.73
2018-06-09T22:12:29.761Z,17.00
2018-06-09T22:14:59.009Z,20.20
2018-06-09T22:17:28.314Z,21.70
2018-06-09T22:19:57.536Z,16.70
2018-06-09T22:22:25.881Z,15.20
2018-06-09T22:24:54.250Z,17.83
2018-06-09T22:27:23.448Z,18.63
2018-06-09T22:29:51.771Z,18.93
2018-06-09T22:32:20.246Z,18.17
2018-06-09T22:34:48.556Z,20.97
2018-06-09T22:37:16.873Z,20.10
2018-06-09T22:39:45.189Z,19.53
2018-06-09T22:42:13.499Z,22.30
2018-06-09T22:44:41.810Z,21.20
2018-06-09T22:47:10.139Z,19.50
2018-06-09T22:49:38.453Z,21.10
2018-06-09T22:52:06.764Z,23.03
2018-06-09T22:54:36.090Z,16.87
2018-06-09T22:57:04.397Z,20.13
2018-06-09T22:59:33.637Z,19.53
2018-06-09T23:02:01.951Z,25.07
2018-06-09T23:04:30.249Z,21.53
2018-06-09T23:06:58.558Z,31.03
2018-06-09T23:09:26.874Z,23.20
2018-06-09T23:11:55.212Z,22.83
2018-06-09T23:14:23.525Z,24.87
2018-06-09T23:16:51.844Z,20.37
2018-06-09T23:19:20.160Z,22.27
2018-06-09T23:21:48.473Z,27.53
2018-06-09T23:24:16.776Z,24.33
2018-06-09T23:26:45.992Z,23.23
2018-06-09T23:29:14.298Z,24.10
2018-06-09T23:31:42.613Z,27.53
2018-06-09T23:34:10.917Z,19.90
2018-06-09T23:36:39.225Z,20.33
2018-06-09T23:39:07.811Z,19.83
2018-06-09T23:41:36.136Z,21.93
2018-06-09T23:44:04.449Z,22.17
2018-06-09T23:46:32.837Z,21.00
2018-06-09T23:49:01.113Z,20.67
2018-06-09T23:51:29.477Z,20.50
2018-06-09T23:53:57.792Z,21.80
2018-06-09T23:56:27.104Z,21.57
2018-06-09T23:58:55.427Z,23.40
